Time;durP1;ratioP1;P1;durP2;ratioP2;P2;SDS_P1;SDS_P2;PMS_P1;PMS_P2;Temp;Humidity;BMP_temperature;BMP_pressure;BME280_temperature;BME280_humidity;BME280_pressure;Samples;Min_cycle;Max_cycle;Signal;HPM_P1;HPM_P2
2022/07/02 00:02:51;;;;;;;13.48;9.65;;;;;;;19.10;93.25;95152.13;4994956;28;20038;-67
2022/07/02 00:05:22;;;;;;;14.02;9.65;;;;;;;19.09;92.88;95150.59;4996662;28;20042;-67
2022/07/02 00:07:50;;;;;;;13.73;9.05;;;;;;;19.12;92.57;95144.72;4991706;28;20043;-67
2022/07/02 00:10:28;;;;;;;12.63;9.18;;;;;;;19.14;91.50;95142.63;5009148;28;20053;-66
2022/07/02 00:12:55;;;;;;;10.70;8.90;;;;;;;19.16;91.11;95137.84;4995720;28;20510;-66
2022/07/02 00:15:22;;;;;;;12.00;8.90;;;;;;;19.19;90.84;95145.19;4994597;28;20042;-66
2022/07/02 00:18:21;;;;;;;10.85;8.70;;;;;;;19.24;90.60;95142.50;4998101;28;20178;-67
2022/07/02 00:20:49;;;;;;;13.15;8.93;;;;;;;19.22;90.70;95142.00;4992307;28;20042;-68
2022/07/02 00:23:16;;;;;;;13.43;8.55;;;;;;;19.22;90.80;95134.09;4993860;28;20038;-68
2022/07/02 00:26:16;;;;;;;14.95;10.07;;;;;;;19.40;90.67;95139.75;5001057;28;20030;-66
2022/07/02 00:28:49;;;;;;;12.48;9.15;;;;;;;19.35;91.04;95143.22;4997309;28;20054;-68
2022/07/02 00:31:28;;;;;;;12.02;9.32;;;;;;;19.37;90.98;95140.28;4980419;28;20088;-68
2022/07/02 00:33:56;;;;;;;10.23;8.93;;;;;;;19.36;90.82;95144.03;5000393;28;20742;-67
2022/07/02 00:36:25;;;;;;;10.65;8.70;;;;;;;19.37;90.61;95153.50;5033227;28;20040;-68
2022/07/02 00:38:51;;;;;;;13.77;9.57;;;;;;;19.26;91.05;95148.31;5041651;28;20056;-67
2022/07/02 00:41:20;;;;;;;10.30;7.85;;;;;;;19.24;90.37;95142.50;5036234;28;20079;-68
2022/07/02 00:43:47;;;;;;;11.35;9.27;;;;;;;19.24;89.83;95147.81;5039826;28;20033;-68
2022/07/02 00:46:17;;;;;;;15.10;9.30;;;;;;;19.19;90.12;95145.19;5041409;28;20052;-68
2022/07/02 00:48:54;;;;;;;12.88;8.90;;;;;;;19.11;90.14;95143.16;5037956;28;20171;-68
2022/07/02 00:51:21;;;;;;;14.35;9.65;;;;;;;19.06;90.25;95136.06;5029720;28;20959;-68
2022/07/02 00:54:19;;;;;;;10.65;8.27;;;;;;;19.03;90.95;95141.13;5028548;28;20041;-68
2022/07/02 00:56:46;;;;;;;12.02;9.00;;;;;;;18.94;91.50;95153.31;5014574;28;20045;-67
2022/07/02 00:59:13;;;;;;;11.18;8.93;;;;;;;18.89;91.38;95151.53;5043237;28;20045;-67
2022/07/02 01:01:53;;;;;;;12.48;9.40;;;;;;;18.79;92.00;95149.72;5041278;28;20041;-68
2022/07/02 01:04:20;;;;;;;10.77;8.70;;;;;;;18.72;92.65;95141.31;5040302;28;20039;-68
2022/07/02 01:06:49;;;;;;;14.55;8.90;;;;;;;18.67;93.28;95150.06;5039056;28;21629;-67
2022/07/02 01:12:03;;;;;;;12.15;9.07;;;;;;;18.52;94.10;95153.56;5033176;28;20053;-68
2022/07/02 01:14:30;;;;;;;11.00;9.00;;;;;;;18.56;94.52;95153.81;5037755;28;20045;-68
2022/07/02 01:17:25;;;;;;;11.65;9.07;;;;;;;18.52;94.51;95153.56;5044426;28;20767;-67
2022/07/02 01:19:52;;;;;;;14.10;9.57;;;;;;;18.51;93.73;95141.47;5029541;28;20044;-68
2022/07/02 01:22:22;;;;;;;10.95;9.52;;;;;;;18.51;94.25;95152.00;5046345;28;20041;-68
2022/07/02 01:24:54;;;;;;;10.98;8.65;;;;;;;18.39;95.09;95141.00;5026842;28;20072;-67
2022/07/02 01:27:22;;;;;;;14.98;9.30;;;;;;;18.36;95.58;95135.47;5047885;28;20048;-67
2022/07/02 01:29:50;;;;;;;10.10;8.77;;;;;;;18.39;96.01;95127.03;5042802;28;20055;-66
2022/07/02 01:32:18;;;;;;;11.45;9.93;;;;;;;18.36;95.45;95133.63;5046273;28;20056;-68
2022/07/02 01:34:53;;;;;;;11.25;9.55;;;;;;;18.37;95.33;95126.53;5047191;28;20037;-68
2022/07/02 01:37:21;;;;;;;18.60;9.38;;;;;;;18.38;95.92;95134.13;5046617;28;20784;-64
2022/07/02 01:40:00;;;;;;;12.45;9.20;;;;;;;18.35;95.98;95126.78;5043127;28;20032;-66
2022/07/02 01:42:41;;;;;;;12.48;9.18;;;;;;;18.30;96.35;95124.16;5039593;28;20045;-65
2022/07/02 01:45:09;;;;;;;13.25;9.73;;;;;;;18.28;96.11;95128.94;5041675;28;20724;-66
2022/07/02 01:47:36;;;;;;;17.90;9.60;;;;;;;18.23;96.81;95124.47;5046793;28;20807;-68
2022/07/02 01:50:14;;;;;;;11.50;8.95;;;;;;;18.15;97.52;95123.19;5047630;28;20858;-67
2022/07/02 01:52:41;;;;;;;11.60;8.70;;;;;;;18.11;97.73;95122.16;5046198;28;20041;-67
2022/07/02 01:55:08;;;;;;;13.93;9.93;;;;;;;18.09;98.25;95124.25;5041597;28;20102;-67
2022/07/02 01:57:35;;;;;;;15.20;10.07;;;;;;;18.07;99.42;95134.28;5046356;28;20045;-67
2022/07/02 02:00:08;;;;;;;13.30;9.82;;;;;;;17.99;100.00;95119.06;5040425;28;20279;-67
2022/07/02 02:02:35;;;;;;;12.75;10.15;;;;;;;18.15;100.00;95133.75;5046096;28;20544;-67
2022/07/02 02:05:03;;;;;;;11.77;9.10;;;;;;;18.14;100.00;95132.16;5039928;28;20273;-67
2022/07/02 02:07:33;;;;;;;14.93;9.50;;;;;;;18.15;100.00;95128.47;5042528;28;20150;-67
2022/07/02 02:10:00;;;;;;;17.02;9.23;;;;;;;18.19;100.00;95133.19;5042416;28;20052;-67
2022/07/02 02:12:27;;;;;;;13.55;9.35;;;;;;;18.14;100.00;95121.59;5044963;28;20051;-67
2022/07/02 02:14:54;;;;;;;12.80;9.70;;;;;;;18.17;100.00;95130.03;5043373;28;20052;-67
2022/07/02 02:17:21;;;;;;;13.70;10.73;;;;;;;18.14;100.00;95131.38;5040634;28;20055;-67
2022/07/02 02:19:48;;;;;;;14.13;9.05;;;;;;;18.09;100.00;95126.91;5045020;28;20045;-67
2022/07/02 02:22:16;;;;;;;17.00;10.13;;;;;;;17.89;100.00;95103.28;5035285;28;20052;-67
2022/07/02 02:24:42;;;;;;;14.82;10.70;;;;;;;18.00;100.00;95125.88;5040098;28;20753;-66
2022/07/02 02:27:32;;;;;;;13.82;9.48;;;;;;;18.03;100.00;95135.91;5041634;28;20075;-66
2022/07/02 02:30:09;;;;;;;13.60;10.35;;;;;;;18.02;100.00;95136.16;5018550;28;20052;-67
2022/07/02 02:33:08;;;;;;;11.45;9.23;;;;;;;17.93;100.00;95141.19;5040899;28;20079;-67
2022/07/02 02:35:36;;;;;;;13.50;10.50;;;;;;;17.90;100.00;95141.75;5046601;28;20115;-65
2022/07/02 02:38:03;;;;;;;12.43;9.85;;;;;;;17.90;100.00;95142.53;5040179;28;20549;-66
2022/07/02 02:40:30;;;;;;;13.00;10.77;;;;;;;17.83;100.00;95130.69;5046142;28;20045;-66
2022/07/02 02:42:57;;;;;;;12.13;9.25;;;;;;;17.99;100.00;95150.69;5038074;28;20037;-66
2022/07/02 02:45:24;;;;;;;13.98;9.80;;;;;;;18.02;100.00;95158.03;5040807;28;20545;-66
2022/07/02 02:47:51;;;;;;;13.52;9.57;;;;;;;18.02;100.00;95160.66;5043206;28;20045;-67
2022/07/02 02:50:18;;;;;;;17.23;9.88;;;;;;;18.00;100.00;95162.00;5040572;28;20562;-66
2022/07/02 02:52:51;;;;;;;15.20;10.18;;;;;;;18.01;100.00;95169.63;5025970;28;20045;-66
2022/07/02 02:55:18;;;;;;;14.60;10.50;;;;;;;18.03;100.00;95166.75;5039365;28;21413;-66
2022/07/02 02:57:45;;;;;;;12.90;11.02;;;;;;;18.00;100.00;95173.31;5027723;28;20454;-66
2022/07/02 03:00:12;;;;;;;14.15;10.55;;;;;;;17.87;100.00;95158.09;5038107;28;20083;-66
2022/07/02 03:02:39;;;;;;;13.15;9.95;;;;;;;17.91;100.00;95169.66;5046177;28;20033;-66
2022/07/02 03:05:06;;;;;;;11.93;9.40;;;;;;;17.95;100.00;95181.25;5021264;28;20051;-66
2022/07/02 03:07:34;;;;;;;13.88;9.40;;;;;;;17.91;100.00;95185.47;5042947;28;20072;-66
2022/07/02 03:10:16;;;;;;;12.98;10.00;;;;;;;17.85;100.00;95186.53;5036306;28;20680;-66
2022/07/02 03:12:43;;;;;;;12.88;9.65;;;;;;;17.80;100.00;95183.91;5039942;28;20120;-66
2022/07/02 03:15:10;;;;;;;16.52;10.23;;;;;;;17.86;100.00;95183.66;5038425;28;20469;-66
2022/07/02 03:17:37;;;;;;;15.57;10.10;;;;;;;17.92;100.00;95179.94;5041589;28;20045;-66
2022/07/02 03:20:04;;;;;;;23.58;11.13;;;;;;;18.00;100.00;95183.84;5040562;28;20052;-66
2022/07/02 03:22:37;;;;;;;12.55;9.95;;;;;;;18.05;100.00;95181.22;5041978;28;20430;-66
2022/07/02 03:25:14;;;;;;;15.07;9.98;;;;;;;18.06;100.00;95190.72;5036321;28;20045;-66
2022/07/02 03:27:41;;;;;;;14.13;10.57;;;;;;;18.08;100.00;95196.50;5036561;28;20047;-66
2022/07/02 03:30:18;;;;;;;13.80;9.80;;;;;;;18.07;100.00;95189.63;5017739;28;20061;-66
2022/07/02 03:32:45;;;;;;;12.35;10.18;;;;;;;18.12;100.00;95180.94;5039090;28;20071;-66
2022/07/02 03:35:18;;;;;;;15.93;10.88;;;;;;;18.15;100.00;95191.72;5049760;28;20415;-66
2022/07/02 03:37:45;;;;;;;14.73;10.33;;;;;;;18.14;100.00;95179.59;5035052;28;20041;-66
2022/07/02 03:40:12;;;;;;;16.50;10.30;;;;;;;18.24;100.00;95188.50;5039785;28;20045;-66
2022/07/02 03:42:39;;;;;;;13.32;10.68;;;;;;;18.30;100.00;95198.00;5040796;28;20048;-66
2022/07/02 03:45:37;;;;;;;13.60;10.13;;;;;;;18.39;100.00;95201.63;5039337;28;20048;-66
2022/07/02 03:48:05;;;;;;;15.32;10.82;;;;;;;18.44;100.00;95206.91;5034668;28;20044;-66
2022/07/02 03:50:32;;;;;;;14.88;10.93;;;;;;;18.47;100.00;95203.69;5010749;28;20049;-66
2022/07/02 03:53:13;;;;;;;12.18;10.45;;;;;;;18.57;100.00;95207.38;5008927;28;20128;-66
2022/07/02 03:55:40;;;;;;;14.57;10.18;;;;;;;18.66;100.00;95205.72;5041747;28;20541;-66
2022/07/02 03:58:06;;;;;;;13.20;10.90;;;;;;;18.75;100.00;95208.59;5039005;28;20099;-66
2022/07/02 04:00:33;;;;;;;13.43;10.60;;;;;;;18.80;100.00;95211.97;5035707;28;20053;-66
2022/07/02 04:03:00;;;;;;;12.35;10.65;;;;;;;18.93;100.00;95209.84;5036615;28;20691;-66
2022/07/02 04:05:27;;;;;;;16.20;12.07;;;;;;;19.06;100.00;95206.56;5043275;28;20633;-66
2022/07/02 04:08:26;;;;;;;17.65;11.73;;;;;;;19.24;100.00;95216.44;5040970;28;20053;-66
2022/07/02 04:10:55;;;;;;;12.75;9.52;;;;;;;19.40;100.00;95213.69;5038862;28;20061;-66
2022/07/02 04:13:21;;;;;;;16.80;10.82;;;;;;;19.52;99.61;95216.78;5044007;28;20043;-66
2022/07/02 04:15:48;;;;;;;14.00;10.80;;;;;;;19.64;99.08;95219.84;5037238;28;20045;-65
2022/07/02 04:18:18;;;;;;;18.73;10.98;;;;;;;19.76;98.65;95218.69;5049083;28;20690;-66
2022/07/02 04:20:45;;;;;;;13.23;10.35;;;;;;;19.80;98.41;95217.06;5031864;28;20059;-66
2022/07/02 04:23:12;;;;;;;14.35;11.10;;;;;;;19.80;98.16;95214.41;5039990;28;20517;-67
2022/07/02 04:25:39;;;;;;;15.80;10.65;;;;;;;19.83;98.14;95206.72;5039647;28;20037;-66
2022/07/02 04:28:07;;;;;;;16.17;12.43;;;;;;;19.85;97.56;95224.94;5042295;28;20045;-66
2022/07/02 04:30:34;;;;;;;15.20;12.30;;;;;;;20.02;96.95;95224.50;5040573;28;20045;-66
2022/07/02 04:33:00;;;;;;;12.52;10.45;;;;;;;20.13;96.60;95227.81;5046172;28;20041;-66
2022/07/02 04:35:28;;;;;;;15.05;10.68;;;;;;;20.25;96.04;95222.91;5039847;28;20060;-66
2022/07/02 04:37:55;;;;;;;14.93;11.40;;;;;;;20.28;95.10;95222.38;5040916;28;20457;-66
2022/07/02 04:40:24;;;;;;;15.82;11.25;;;;;;;20.35;94.82;95228.09;5040575;28;20041;-66
2022/07/02 04:42:51;;;;;;;17.60;11.40;;;;;;;20.43;94.21;95224.81;5001639;28;20050;-66
2022/07/02 04:45:49;;;;;;;17.58;11.57;;;;;;;20.51;93.75;95225.25;4988701;28;20697;-66
2022/07/02 04:48:16;;;;;;;15.90;10.75;;;;;;;20.63;93.96;95238.88;5000600;28;20042;-66
2022/07/02 04:51:39;;;;;;;14.05;10.90;;;;;;;20.77;93.23;95231.81;5000201;28;20057;-67
2022/07/02 04:54:09;;;;;;;12.63;10.15;;;;;;;20.87;93.43;95222.16;5005396;28;20041;-67
2022/07/02 04:56:55;;;;;;;16.92;11.57;;;;;;;20.92;93.35;95219.44;5002258;28;20037;-66
2022/07/02 04:59:34;;;;;;;13.75;10.23;;;;;;;21.14;92.27;95237.41;5004097;28;20042;-66
2022/07/02 05:02:16;;;;;;;14.45;10.50;;;;;;;21.23;91.04;95229.59;5008187;28;20161;-66
2022/07/02 05:04:43;;;;;;;11.98;9.88;;;;;;;21.35;91.88;95232.59;5004672;28;20121;-66
2022/07/02 05:07:21;;;;;;;13.18;11.45;;;;;;;21.46;91.30;95234.00;5004366;28;20111;-67
2022/07/02 05:10:07;;;;;;;16.05;11.95;;;;;;;21.55;91.45;95242.91;4996104;28;20054;-67
2022/07/02 05:12:34;;;;;;;17.90;10.48;;;;;;;21.67;90.91;95239.00;5000104;28;20045;-67
2022/07/02 05:15:01;;;;;;;12.63;10.40;;;;;;;21.81;89.61;95237.16;5006262;28;20136;-67
2022/07/02 05:17:27;;;;;;;12.18;10.30;;;;;;;22.00;87.85;95241.59;5002126;28;20045;-67
2022/07/02 05:19:54;;;;;;;12.63;8.80;;;;;;;22.19;87.42;95239.66;5000680;28;20075;-67
2022/07/02 05:22:21;;;;;;;11.55;9.00;;;;;;;22.39;86.46;95237.72;5003027;28;20053;-67
2022/07/02 05:24:48;;;;;;;12.15;9.52;;;;;;;22.53;84.51;95230.53;5000630;28;20703;-67
2022/07/02 05:27:15;;;;;;;13.50;8.10;;;;;;;22.67;83.99;95233.16;5005241;28;20054;-67
2022/07/02 05:29:41;;;;;;;10.10;8.93;;;;;;;22.78;82.05;95244.34;5000855;28;20115;-67
2022/07/02 05:32:14;;;;;;;10.00;8.68;;;;;;;22.91;80.88;95243.53;5029489;28;20038;-67
2022/07/02 05:34:41;;;;;;;11.90;9.60;;;;;;;23.07;81.00;95236.84;4997624;28;20096;-67
2022/07/02 05:37:08;;;;;;;10.43;7.93;;;;;;;23.26;79.68;95238.53;5000166;28;20050;-67
2022/07/02 05:39:35;;;;;;;10.88;7.90;;;;;;;23.38;79.18;95244.09;5001564;28;20436;-67
2022/07/02 05:42:02;;;;;;;10.77;8.48;;;;;;;23.53;77.91;95239.50;5028659;28;20049;-67
2022/07/02 05:44:29;;;;;;;13.55;8.77;;;;;;;23.69;77.64;95250.56;5039626;28;20064;-67
2022/07/02 05:46:56;;;;;;;9.48;8.45;;;;;;;23.79;75.87;95245.75;5040831;28;20040;-67
2022/07/02 05:49:23;;;;;;;9.85;8.60;;;;;;;23.91;75.16;95241.78;5039556;28;20123;-67
2022/07/02 05:51:50;;;;;;;12.70;8.45;;;;;;;23.93;75.27;95243.06;5041589;28;20040;-67
2022/07/02 05:54:18;;;;;;;12.50;8.27;;;;;;;24.08;75.83;95241.88;5047377;28;20041;-67
2022/07/02 05:57:07;;;;;;;12.95;9.07;;;;;;;24.23;74.05;95244.09;4972791;28;20042;-67
2022/07/02 05:59:40;;;;;;;10.32;8.55;;;;;;;24.26;73.67;95244.59;5036358;28;20060;-67
2022/07/02 06:02:07;;;;;;;13.15;9.25;;;;;;;24.34;73.44;95243.84;5040311;28;20060;-67
2022/07/02 06:04:34;;;;;;;16.88;9.32;;;;;;;24.43;71.85;95247.31;5044368;28;20510;-67
2022/07/02 06:09:47;;;;;;;13.52;8.90;;;;;;;24.75;69.33;95264.03;5047071;28;20048;-67
2022/07/02 06:12:14;;;;;;;11.00;8.43;;;;;;;24.92;69.46;95256.06;5041413;28;20139;-67
2022/07/02 06:14:42;;;;;;;12.02;9.43;;;;;;;25.09;69.70;95257.94;5025476;28;20530;-67
2022/07/02 06:17:10;;;;;;;11.65;8.68;;;;;;;25.23;70.05;95251.66;5038459;28;20136;-67
2022/07/02 06:19:38;;;;;;;10.43;9.30;;;;;;;25.18;71.11;95260.63;5040697;28;20054;-67
2022/07/02 06:22:07;;;;;;;11.60;9.70;;;;;;;25.27;71.55;95256.09;5041985;28;20641;-67
2022/07/02 06:25:07;;;;;;;13.38;9.82;;;;;;;25.26;71.13;95257.19;5038505;28;21462;-67
2022/07/02 06:27:34;;;;;;;13.65;10.30;;;;;;;24.90;72.90;95254.78;5038682;28;20044;-67
2022/07/02 06:30:07;;;;;;;15.75;9.77;;;;;;;25.06;72.25;95263.13;5048034;28;20055;-67
2022/07/02 06:32:33;;;;;;;10.93;9.82;;;;;;;25.13;71.88;95258.09;5043313;28;20036;-67
2022/07/02 06:35:00;;;;;;;13.30;9.85;;;;;;;25.28;72.71;95260.34;5029810;28;20033;-68
2022/07/02 06:37:27;;;;;;;13.80;10.63;;;;;;;25.38;71.05;95260.00;5042126;28;20056;-70
2022/07/02 06:39:54;;;;;;;11.50;10.10;;;;;;;25.47;71.80;95261.91;5041893;28;20041;-67
2022/07/02 06:42:26;;;;;;;13.98;10.23;;;;;;;25.40;71.07;95266.91;5038581;28;20049;-66
2022/07/02 06:44:56;;;;;;;12.75;9.50;;;;;;;25.57;68.99;95261.59;5021791;28;20057;-66
2022/07/02 06:47:25;;;;;;;11.05;9.38;;;;;;;25.91;67.68;95271.41;5037951;28;20265;-66
2022/07/02 06:49:55;;;;;;;10.98;9.85;;;;;;;26.12;67.39;95271.50;5034988;28;20442;-67
2022/07/02 06:52:22;;;;;;;12.52;9.23;;;;;;;26.36;66.83;95270.16;5040950;28;20041;-66
2022/07/02 06:54:49;;;;;;;11.70;9.30;;;;;;;26.54;64.85;95281.53;5036965;28;20021;-66
2022/07/02 06:57:18;;;;;;;10.82;9.48;;;;;;;26.78;66.61;95272.97;5037807;28;20737;-66
2022/07/02 07:00:11;;;;;;;14.43;9.88;;;;;;;26.83;64.77;95278.13;5039549;28;20437;-66
2022/07/02 07:02:38;;;;;;;14.07;9.20;;;;;;;26.82;63.79;95281.91;5040044;28;20834;-66
2022/07/02 07:05:06;;;;;;;20.15;9.98;;;;;;;26.89;63.97;95279.50;5037161;28;20139;-66
2022/07/02 07:07:34;;;;;;;10.82;9.20;;;;;;;27.13;63.53;95282.66;5041335;28;20056;-66
2022/07/02 07:10:01;;;;;;;12.48;8.10;;;;;;;27.34;60.79;95282.69;5038254;28;20051;-66
2022/07/02 07:12:28;;;;;;;10.10;8.77;;;;;;;27.52;60.70;95286.78;5043854;28;20540;-68
2022/07/02 07:14:59;;;;;;;10.32;8.38;;;;;;;27.53;57.78;95250.91;5042182;28;20053;-67
2022/07/02 07:17:26;;;;;;;9.55;8.40;;;;;;;27.84;56.93;95284.44;5043566;28;20045;-67
2022/07/02 07:19:53;;;;;;;11.68;8.48;;;;;;;27.92;55.21;95282.81;5043340;28;20055;-67
2022/07/02 07:22:33;;;;;;;11.52;8.68;;;;;;;28.01;54.30;95292.31;5028730;28;20116;-67
2022/07/02 07:25:00;;;;;;;9.27;8.23;;;;;;;28.02;56.76;95282.41;5039710;28;20041;-67
2022/07/02 07:27:27;;;;;;;12.85;8.30;;;;;;;28.11;55.44;95293.00;5040233;28;20047;-67
2022/07/02 07:29:54;;;;;;;15.98;9.30;;;;;;;28.27;55.33;95288.56;5042430;28;20056;-68
2022/07/02 07:32:20;;;;;;;16.23;8.93;;;;;;;28.36;55.28;95286.56;5023275;28;20123;-68
2022/07/02 07:34:47;;;;;;;11.20;8.73;;;;;;;28.44;55.32;95286.81;5045746;28;20803;-68
2022/07/02 07:37:15;;;;;;;12.25;9.35;;;;;;;28.54;55.19;95292.53;5043672;28;20043;-68
2022/07/02 07:39:42;;;;;;;10.20;8.32;;;;;;;28.71;56.47;95291.50;5044509;28;20049;-68
2022/07/02 07:42:09;;;;;;;10.13;8.05;;;;;;;28.96;54.52;95299.53;5038889;28;20538;-67
2022/07/02 07:44:36;;;;;;;11.02;8.68;;;;;;;29.29;55.45;95288.66;5040508;28;20095;-68
2022/07/02 07:47:03;;;;;;;10.05;8.95;;;;;;;29.53;52.98;95297.72;5039903;28;20068;-68
2022/07/02 07:49:30;;;;;;;11.27;8.90;;;;;;;29.70;51.75;95289.41;5040455;28;20048;-68
2022/07/02 07:51:57;;;;;;;11.25;9.30;;;;;;;29.88;50.63;95303.31;5039488;28;20045;-68
2022/07/02 07:54:24;;;;;;;10.48;8.68;;;;;;;29.88;50.43;95292.59;5037676;28;20056;-68
2022/07/02 07:56:51;;;;;;;14.70;9.63;;;;;;;29.89;52.19;95298.72;5040719;28;20040;-67
2022/07/02 07:59:19;;;;;;;13.15;10.00;;;;;;;29.70;52.79;95296.69;5040062;28;20049;-67
2022/07/02 08:01:46;;;;;;;11.85;10.10;;;;;;;29.82;52.91;95298.53;5037476;28;20103;-67
2022/07/02 08:04:13;;;;;;;11.65;9.73;;;;;;;29.63;51.78;95297.25;5044187;28;20047;-67
2022/07/02 08:06:39;;;;;;;12.20;9.70;;;;;;;29.59;54.26;95295.59;5024563;28;20036;-68
2022/07/02 08:09:06;;;;;;;11.05;9.27;;;;;;;29.42;52.69;95302.78;5034435;28;20052;-68
2022/07/02 08:11:33;;;;;;;11.27;8.93;;;;;;;29.20;54.37;95295.28;5038716;28;20041;-67
2022/07/02 08:14:00;;;;;;;9.75;8.65;;;;;;;29.02;54.25;95295.50;5036491;28;20615;-67
2022/07/02 08:16:31;;;;;;;17.10;9.73;;;;;;;29.22;54.51;95293.03;5042142;28;20063;-68
2022/07/02 08:18:58;;;;;;;10.13;9.02;;;;;;;29.20;55.26;95295.28;5022531;28;20707;-67
2022/07/02 08:21:24;;;;;;;12.13;9.82;;;;;;;29.11;53.45;95304.19;5028044;28;20040;-67
2022/07/02 08:23:57;;;;;;;13.50;9.10;;;;;;;29.04;55.01;95303.97;5043140;28;20055;-67
2022/07/02 08:26:24;;;;;;;11.90;8.88;;;;;;;29.08;55.09;95296.84;5036790;28;20040;-68
2022/07/02 08:28:51;;;;;;;12.80;8.68;;;;;;;29.39;52.86;95308.06;5021876;28;20064;-67
2022/07/02 08:31:18;;;;;;;11.20;8.75;;;;;;;29.68;50.57;95298.91;5040568;28;20049;-67
2022/07/02 08:33:47;;;;;;;15.35;9.90;;;;;;;30.00;50.32;95304.38;5043870;28;20053;-67
2022/07/02 08:36:14;;;;;;;12.27;8.27;;;;;;;30.16;49.62;95302.50;5023731;28;20055;-66
2022/07/02 08:38:41;;;;;;;9.65;8.00;;;;;;;30.44;48.00;95301.69;5020370;28;20528;-67
2022/07/02 08:41:09;;;;;;;9.48;7.68;;;;;;;30.64;47.90;95306.00;5038998;28;20041;-67
2022/07/02 08:43:39;;;;;;;8.95;7.82;;;;;;;30.71;46.04;95313.44;5015282;28;20046;-67
2022/07/02 08:46:07;;;;;;;8.68;7.50;;;;;;;30.71;44.61;95310.00;5038756;28;20525;-67
2022/07/02 08:48:39;;;;;;;10.77;8.32;;;;;;;30.91;45.39;95325.03;5041507;28;20525;-67
2022/07/02 08:51:07;;;;;;;11.93;7.90;;;;;;;31.16;44.45;95324.84;5039121;28;20517;-66
2022/07/02 08:53:34;;;;;;;9.50;8.30;;;;;;;31.39;45.31;95319.59;5039356;28;20518;-67
2022/07/02 08:56:02;;;;;;;10.68;7.13;;;;;;;31.54;44.24;95315.28;5036684;28;20718;-67
2022/07/02 08:58:37;;;;;;;8.73;7.80;;;;;;;31.73;43.73;95317.97;5038708;28;20037;-66
2022/07/02 09:01:20;;;;;;;9.88;7.82;;;;;;;32.13;43.20;95324.13;5042483;28;20075;-67
2022/07/02 09:03:51;;;;;;;9.18;7.63;;;;;;;32.30;42.22;95325.56;5038132;28;20055;-67
2022/07/02 09:06:48;;;;;;;9.68;7.38;;;;;;;32.12;44.08;95315.25;5041238;28;20048;-67
2022/07/02 09:09:16;;;;;;;19.20;8.77;;;;;;;32.13;43.42;95322.22;5036929;28;20040;-67
2022/07/02 09:11:43;;;;;;;11.65;8.13;;;;;;;32.12;43.09;95315.25;5041623;28;20045;-67
2022/07/02 09:14:21;;;;;;;11.68;7.80;;;;;;;31.95;44.39;95307.63;5045128;28;20151;-67
2022/07/02 09:16:50;;;;;;;11.00;6.85;;;;;;;32.20;43.38;95316.94;5042708;28;20044;-67
2022/07/02 09:19:49;;;;;;;9.82;7.53;;;;;;;31.72;42.42;95313.72;5041476;28;20052;-67
2022/07/02 09:22:16;;;;;;;10.48;7.80;;;;;;;31.72;44.01;95308.34;5021229;28;20123;-67
2022/07/02 09:25:25;;;;;;;11.18;8.40;;;;;;;31.70;45.04;95310.59;5035941;28;20112;-67
2022/07/02 09:28:05;;;;;;;11.40;7.93;;;;;;;31.68;45.82;95302.13;5038433;28;20044;-67
2022/07/02 09:30:36;;;;;;;10.32;7.90;;;;;;;31.91;44.71;95304.84;5040901;28;20116;-67
2022/07/02 09:33:36;;;;;;;13.77;8.23;;;;;;;32.24;44.15;95305.44;5037734;28;20049;-67
2022/07/02 09:36:12;;;;;;;13.23;8.73;;;;;;;32.48;43.31;95307.78;5042364;28;21626;-68
2022/07/02 09:38:42;;;;;;;9.02;8.00;;;;;;;32.44;43.37;95304.25;5038665;28;20045;-68
2022/07/02 09:41:12;;;;;;;13.90;7.65;;;;;;;32.55;42.74;95299.78;5038742;28;20053;-68
2022/07/02 09:43:59;;;;;;;14.48;8.38;;;;;;;32.41;42.64;95299.56;5045425;28;20567;-68
2022/07/02 09:46:27;;;;;;;8.45;7.60;;;;;;;32.39;42.50;95301.84;5043769;28;20049;-68
2022/07/02 09:49:07;;;;;;;12.13;7.32;;;;;;;33.01;42.24;95304.38;5043221;28;20055;-68
2022/07/02 09:51:46;;;;;;;9.02;7.28;;;;;;;33.41;39.66;95304.91;5037584;28;20033;-68
2022/07/02 09:54:18;;;;;;;12.10;7.22;;;;;;;33.85;39.01;95296.19;5044294;28;20041;-68
2022/07/02 09:57:29;;;;;;;14.85;10.07;;;;;;;33.97;37.94;95304.03;5038362;28;20065;-68
2022/07/02 10:00:07;;;;;;;15.93;12.55;;;;;;;34.01;37.95;95304.81;5037791;28;20683;-68
2022/07/02 10:02:37;;;;;;;10.02;8.25;;;;;;;34.09;37.38;95301.06;5035536;28;20525;-68
2022/07/02 10:05:06;;;;;;;8.02;6.55;;;;;;;34.12;38.32;95293.34;5044911;28;20108;-68
2022/07/02 10:07:40;;;;;;;8.43;6.85;;;;;;;34.61;37.11;95286.84;5042746;28;20529;-68
2022/07/02 10:10:07;;;;;;;11.13;6.70;;;;;;;34.80;35.01;95289.31;5043388;28;20052;-68
2022/07/02 10:12:34;;;;;;;9.95;6.75;;;;;;;34.60;34.89;95290.72;5042937;28;20059;-68
2022/07/02 10:15:04;;;;;;;7.72;6.93;;;;;;;34.43;35.62;95292.91;5040865;28;20048;-68
2022/07/02 10:17:33;;;;;;;8.65;7.43;;;;;;;34.55;35.96;95285.66;5039859;28;20037;-68
2022/07/02 10:20:08;;;;;;;12.55;7.97;;;;;;;34.73;37.55;95291.22;5045268;28;20052;-68
2022/07/02 10:22:36;;;;;;;9.63;6.50;;;;;;;34.76;38.05;95283.13;5033370;28;20059;-68
2022/07/02 10:25:04;;;;;;;11.95;6.95;;;;;;;34.80;36.20;95286.63;5047899;28;20029;-67
2022/07/02 10:27:32;;;;;;;10.50;7.07;;;;;;;34.75;35.04;95275.38;5040164;28;20037;-68
2022/07/02 10:30:00;;;;;;;8.20;6.55;;;;;;;34.60;36.07;95279.88;5039303;28;20287;-67
2022/07/02 10:32:45;;;;;;;7.88;6.45;;;;;;;34.79;35.08;95271.56;5041194;28;20038;-68
2022/07/02 10:35:16;;;;;;;10.15;6.30;;;;;;;34.76;34.73;95266.88;5043907;28;20694;-67
2022/07/02 10:37:45;;;;;;;8.75;6.57;;;;;;;35.07;32.64;95270.16;5045127;28;20538;-68
2022/07/02 10:40:18;;;;;;;7.95;6.10;;;;;;;35.57;34.72;95269.63;5024869;28;20124;-68
2022/07/02 10:42:48;;;;;;;10.15;6.63;;;;;;;36.10;31.54;95270.91;5042939;28;20052;-68
2022/07/02 10:45:25;;;;;;;9.75;6.35;;;;;;;36.47;32.89;95272.53;5038518;28;20040;-68
2022/07/02 10:47:55;;;;;;;8.80;6.43;;;;;;;36.62;33.13;95271.34;5037432;28;20045;-68
2022/07/02 10:50:38;;;;;;;7.22;6.53;;;;;;;36.68;32.58;95272.53;5036216;28;20033;-67
2022/07/02 10:53:09;;;;;;;7.18;5.93;;;;;;;36.45;32.08;95274.84;5041137;28;20108;-68
2022/07/02 10:55:40;;;;;;;7.75;5.63;;;;;;;36.44;32.94;95270.59;5039119;28;20041;-68
2022/07/02 10:58:16;;;;;;;8.20;6.20;;;;;;;36.63;31.42;95262.06;5040626;28;20053;-69
2022/07/02 11:00:43;;;;;;;7.35;5.88;;;;;;;36.80;30.83;95265.16;5039540;28;20048;-69
2022/07/02 11:03:27;;;;;;;7.40;5.45;;;;;;;36.95;30.63;95272.09;5039569;28;21337;-68
2022/07/02 11:06:19;;;;;;;6.32;5.72;;;;;;;37.10;29.98;95273.59;5034881;28;20485;-68
2022/07/02 11:08:59;;;;;;;8.55;6.07;;;;;;;37.07;31.34;95274.38;5040497;28;20044;-68
2022/07/02 11:11:30;;;;;;;6.00;5.43;;;;;;;36.93;31.27;95279.84;5043621;28;20076;-68
2022/07/02 11:14:26;;;;;;;12.35;6.60;;;;;;;36.60;31.74;95279.09;5039859;28;20099;-68
2022/07/02 11:17:18;;;;;;;6.72;5.80;;;;;;;36.44;31.74;95276.00;5039490;28;20055;-68
2022/07/02 11:19:57;;;;;;;6.70;5.85;;;;;;;36.38;30.57;95272.16;5044300;28;20548;-67
2022/07/02 11:22:42;;;;;;;10.15;5.72;;;;;;;36.40;32.20;95269.81;5045182;28;20045;-67
2022/07/02 11:25:13;;;;;;;5.78;4.63;;;;;;;36.30;30.78;95274.06;5042976;28;20052;-68
2022/07/02 11:28:07;;;;;;;6.40;4.22;;;;;;;36.78;29.36;95265.53;5044920;28;20556;-67
2022/07/02 11:30:34;;;;;;;5.65;4.28;;;;;;;37.41;27.19;95265.00;5043751;28;20044;-67
2022/07/02 11:33:20;;;;;;;8.63;4.70;;;;;;;37.85;27.80;95264.41;5042951;28;20532;-67
2022/07/02 11:35:56;;;;;;;6.97;5.18;;;;;;;38.47;26.54;95267.50;5039605;28;20041;-68
2022/07/02 11:38:23;;;;;;;6.60;4.47;;;;;;;38.72;26.59;95274.69;5015308;28;20057;-67
2022/07/02 11:40:50;;;;;;;6.78;4.78;;;;;;;38.49;26.49;95258.94;5041236;28;20047;-68
2022/07/02 11:43:18;;;;;;;7.40;4.72;;;;;;;38.10;26.59;95266.22;5040142;28;20438;-69
2022/07/02 11:45:52;;;;;;;7.20;4.97;;;;;;;37.44;28.15;95264.97;5044589;28;20048;-67
2022/07/02 11:48:42;;;;;;;10.52;5.18;;;;;;;37.19;27.30;95256.94;5044126;28;20136;-67
2022/07/02 11:51:19;;;;;;;5.97;4.78;;;;;;;36.82;27.52;95257.38;5035741;28;20103;-67
2022/07/02 11:53:58;;;;;;;12.88;4.75;;;;;;;36.93;27.76;95253.50;5009220;28;20076;-67